sensor_id;sensor_type;location;lat;lon;timestamp;P1;durP1;ratioP1;P2;durP2;ratioP2
78985;SDS011;68384;55.750;48.746;2023-06-24T00:00:25;5.45;;;3.13;;
78985;SDS011;68384;55.750;48.746;2023-06-24T00:01:28;4.10;;;3.13;;
78985;SDS011;68384;55.750;48.746;2023-06-24T00:02:34;6.97;;;3.13;;
78985;SDS011;68384;55.750;48.746;2023-06-24T00:03:39;4.55;;;2.67;;
78985;SDS011;68384;55.750;48.746;2023-06-24T00:04:42;5.60;;;3.10;;
78985;SDS011;68384;55.750;48.746;2023-06-24T00:05:45;5.00;;;3.50;;
78985;SDS011;68384;55.750;48.746;2023-06-24T00:06:51;5.95;;;3.30;;
78985;SDS011;68384;55.750;48.746;2023-06-24T00:07:54;4.82;;;3.42;;
78985;SDS011;68384;55.750;48.746;2023-06-24T00:09:00;5.30;;;3.20;;
78985;SDS011;68384;55.750;48.746;2023-06-24T00:10:03;3.45;;;2.90;;
78985;SDS011;68384;55.750;48.746;2023-06-24T00:11:09;5.75;;;3.10;;
78985;SDS011;68384;55.750;48.746;2023-06-24T00:12:12;4.10;;;2.63;;
78985;SDS011;68384;55.750;48.746;2023-06-24T00:13:21;4.32;;;3.30;;
78985;SDS011;68384;55.750;48.746;2023-06-24T00:14:24;5.57;;;3.22;;
78985;SDS011;68384;55.750;48.746;2023-06-24T00:15:29;4.47;;;3.00;;
78985;SDS011;68384;55.750;48.746;2023-06-24T00:16:31;4.43;;;3.20;;
78985;SDS011;68384;55.750;48.746;2023-06-24T00:17:35;3.60;;;2.65;;
78985;SDS011;68384;55.750;48.746;2023-06-24T00:18:39;5.72;;;3.20;;
78985;SDS011;68384;55.750;48.746;2023-06-24T00:19:43;5.40;;;3.28;;
78985;SDS011;68384;55.750;48.746;2023-06-24T00:20:46;3.83;;;2.88;;
78985;SDS011;68384;55.750;48.746;2023-06-24T00:21:51;5.55;;;2.92;;
78985;SDS011;68384;55.750;48.746;2023-06-24T00:22:54;4.40;;;3.10;;
78985;SDS011;68384;55.750;48.746;2023-06-24T00:23:59;3.38;;;2.67;;
78985;SDS011;68384;55.750;48.746;2023-06-24T00:25:05;4.50;;;2.97;;
78985;SDS011;68384;55.750;48.746;2023-06-24T00:26:09;4.82;;;3.22;;
78985;SDS011;68384;55.750;48.746;2023-06-24T00:27:12;3.88;;;2.63;;
78985;SDS011;68384;55.750;48.746;2023-06-24T00:28:16;5.32;;;3.00;;
78985;SDS011;68384;55.750;48.746;2023-06-24T00:29:19;4.65;;;3.30;;
78985;SDS011;68384;55.750;48.746;2023-06-24T00:30:23;4.00;;;2.92;;
78985;SDS011;68384;55.750;48.746;2023-06-24T00:31:26;5.25;;;3.00;;
78985;SDS011;68384;55.750;48.746;2023-06-24T00:32:30;5.07;;;3.15;;
78985;SDS011;68384;55.750;48.746;2023-06-24T00:33:32;4.47;;;3.15;;
78985;SDS011;68384;55.750;48.746;2023-06-24T00:34:38;3.75;;;2.80;;
78985;SDS011;68384;55.750;48.746;2023-06-24T00:35:45;3.95;;;2.97;;
78985;SDS011;68384;55.750;48.746;2023-06-24T00:36:50;4.90;;;3.00;;
78985;SDS011;68384;55.750;48.746;2023-06-24T00:37:53;4.90;;;3.00;;
78985;SDS011;68384;55.750;48.746;2023-06-24T00:39:03;4.72;;;2.65;;
78985;SDS011;68384;55.750;48.746;2023-06-24T00:40:07;3.65;;;2.95;;
78985;SDS011;68384;55.750;48.746;2023-06-24T00:41:13;3.70;;;3.00;;
78985;SDS011;68384;55.750;48.746;2023-06-24T00:42:17;4.80;;;3.38;;
78985;SDS011;68384;55.750;48.746;2023-06-24T00:43:21;3.30;;;2.78;;
78985;SDS011;68384;55.750;48.746;2023-06-24T00:44:24;4.75;;;3.20;;
78985;SDS011;68384;55.750;48.746;2023-06-24T00:45:28;4.25;;;3.17;;
78985;SDS011;68384;55.750;48.746;2023-06-24T00:46:32;4.22;;;2.95;;
78985;SDS011;68384;55.750;48.746;2023-06-24T00:47:37;5.00;;;2.90;;
78985;SDS011;68384;55.750;48.746;2023-06-24T00:48:41;4.03;;;3.15;;
78985;SDS011;68384;55.750;48.746;2023-06-24T00:49:45;4.68;;;3.20;;
78985;SDS011;68384;55.750;48.746;2023-06-24T00:50:48;3.92;;;2.70;;
78985;SDS011;68384;55.750;48.746;2023-06-24T00:51:52;3.80;;;2.80;;
78985;SDS011;68384;55.750;48.746;2023-06-24T00:52:55;3.85;;;2.90;;
78985;SDS011;68384;55.750;48.746;2023-06-24T00:53:59;4.28;;;3.22;;
78985;SDS011;68384;55.750;48.746;2023-06-24T00:55:04;4.15;;;3.10;;
78985;SDS011;68384;55.750;48.746;2023-06-24T00:56:08;3.97;;;3.03;;
78985;SDS011;68384;55.750;48.746;2023-06-24T00:57:15;3.45;;;2.85;;
78985;SDS011;68384;55.750;48.746;2023-06-24T00:58:25;4.25;;;2.75;;
78985;SDS011;68384;55.750;48.746;2023-06-24T00:59:28;4.47;;;2.83;;
78985;SDS011;68384;55.750;48.746;2023-06-24T01:00:36;6.22;;;2.90;;
78985;SDS011;68384;55.750;48.746;2023-06-24T01:01:40;4.53;;;3.20;;
78985;SDS011;68384;55.750;48.746;2023-06-24T01:03:47;3.88;;;2.90;;
78985;SDS011;68384;55.750;48.746;2023-06-24T01:04:50;3.67;;;3.20;;
78985;SDS011;68384;55.750;48.746;2023-06-24T01:06:56;4.45;;;2.80;;
78985;SDS011;68384;55.750;48.746;2023-06-24T01:08:01;7.53;;;3.28;;
78985;SDS011;68384;55.750;48.746;2023-06-24T01:09:04;5.10;;;3.20;;
78985;SDS011;68384;55.750;48.746;2023-06-24T01:10:10;4.10;;;3.00;;
78985;SDS011;68384;55.750;48.746;2023-06-24T01:11:14;4.97;;;2.63;;
78985;SDS011;68384;55.750;48.746;2023-06-24T01:12:18;5.00;;;2.97;;
78985;SDS011;68384;55.750;48.746;2023-06-24T01:13:21;3.45;;;2.80;;
78985;SDS011;68384;55.750;48.746;2023-06-24T01:14:25;4.15;;;2.70;;
78985;SDS011;68384;55.750;48.746;2023-06-24T01:15:28;4.53;;;3.47;;
78985;SDS011;68384;55.750;48.746;2023-06-24T01:16:34;5.38;;;2.72;;
78985;SDS011;68384;55.750;48.746;2023-06-24T01:17:45;3.45;;;2.80;;
78985;SDS011;68384;55.750;48.746;2023-06-24T01:18:59;4.10;;;2.75;;
78985;SDS011;68384;55.750;48.746;2023-06-24T01:20:16;5.13;;;2.92;;
78985;SDS011;68384;55.750;48.746;2023-06-24T01:21:33;3.83;;;2.72;;
78985;SDS011;68384;55.750;48.746;2023-06-24T01:24:35;3.80;;;2.90;;
78985;SDS011;68384;55.750;48.746;2023-06-24T01:27:52;5.60;;;2.70;;
78985;SDS011;68384;55.750;48.746;2023-06-24T01:29:20;4.55;;;3.38;;
78985;SDS011;68384;55.750;48.746;2023-06-24T01:32:28;3.25;;;2.80;;
78985;SDS011;68384;55.750;48.746;2023-06-24T01:33:37;3.47;;;2.72;;
78985;SDS011;68384;55.750;48.746;2023-06-24T01:34:48;4.20;;;3.03;;
78985;SDS011;68384;55.750;48.746;2023-06-24T01:35:58;4.28;;;3.00;;
78985;SDS011;68384;55.750;48.746;2023-06-24T01:37:07;5.53;;;2.70;;
78985;SDS011;68384;55.750;48.746;2023-06-24T01:38:17;3.55;;;2.65;;
78985;SDS011;68384;55.750;48.746;2023-06-24T01:39:24;4.97;;;2.88;;
78985;SDS011;68384;55.750;48.746;2023-06-24T01:40:33;4.38;;;3.17;;
78985;SDS011;68384;55.750;48.746;2023-06-24T01:41:43;4.40;;;3.05;;
78985;SDS011;68384;55.750;48.746;2023-06-24T01:42:49;3.65;;;2.83;;
78985;SDS011;68384;55.750;48.746;2023-06-24T01:43:53;3.47;;;2.83;;
78985;SDS011;68384;55.750;48.746;2023-06-24T01:44:59;4.18;;;2.80;;
78985;SDS011;68384;55.750;48.746;2023-06-24T01:46:04;5.93;;;3.25;;
78985;SDS011;68384;55.750;48.746;2023-06-24T01:47:09;4.10;;;2.70;;
78985;SDS011;68384;55.750;48.746;2023-06-24T01:48:15;5.07;;;3.10;;
78985;SDS011;68384;55.750;48.746;2023-06-24T01:49:22;4.28;;;2.67;;
78985;SDS011;68384;55.750;48.746;2023-06-24T01:50:28;3.53;;;2.95;;
78985;SDS011;68384;55.750;48.746;2023-06-24T01:51:35;4.85;;;3.13;;
78985;SDS011;68384;55.750;48.746;2023-06-24T01:52:41;3.58;;;2.75;;
78985;SDS011;68384;55.750;48.746;2023-06-24T01:53:49;4.90;;;2.97;;
78985;SDS011;68384;55.750;48.746;2023-06-24T01:54:54;3.72;;;2.70;;
78985;SDS011;68384;55.750;48.746;2023-06-24T01:55:59;4.05;;;2.90;;
78985;SDS011;68384;55.750;48.746;2023-06-24T01:57:04;3.85;;;2.92;;
78985;SDS011;68384;55.750;48.746;2023-06-24T01:58:10;4.57;;;3.20;;
78985;SDS011;68384;55.750;48.746;2023-06-24T01:59:15;3.15;;;2.45;;
78985;SDS011;68384;55.750;48.746;2023-06-24T02:00:22;4.07;;;2.97;;
78985;SDS011;68384;55.750;48.746;2023-06-24T02:01:26;3.72;;;2.90;;
78985;SDS011;68384;55.750;48.746;2023-06-24T02:02:31;4.28;;;2.80;;
78985;SDS011;68384;55.750;48.746;2023-06-24T02:03:37;3.42;;;2.80;;
78985;SDS011;68384;55.750;48.746;2023-06-24T02:04:41;3.80;;;3.08;;
78985;SDS011;68384;55.750;48.746;2023-06-24T02:05:46;4.97;;;2.97;;
78985;SDS011;68384;55.750;48.746;2023-06-24T02:06:53;3.42;;;2.85;;
78985;SDS011;68384;55.750;48.746;2023-06-24T02:07:56;4.05;;;2.92;;
78985;SDS011;68384;55.750;48.746;2023-06-24T02:09:02;4.85;;;2.88;;
78985;SDS011;68384;55.750;48.746;2023-06-24T02:10:08;4.35;;;3.10;;
78985;SDS011;68384;55.750;48.746;2023-06-24T02:11:13;5.82;;;2.72;;
78985;SDS011;68384;55.750;48.746;2023-06-24T02:12:18;4.93;;;2.80;;
78985;SDS011;68384;55.750;48.746;2023-06-24T02:13:23;4.78;;;2.80;;
78985;SDS011;68384;55.750;48.746;2023-06-24T02:15:30;4.15;;;2.92;;
78985;SDS011;68384;55.750;48.746;2023-06-24T02:16:36;5.95;;;2.58;;
78985;SDS011;68384;55.750;48.746;2023-06-24T02:17:42;4.35;;;2.70;;
78985;SDS011;68384;55.750;48.746;2023-06-24T02:19:07;3.20;;;2.40;;
78985;SDS011;68384;55.750;48.746;2023-06-24T02:20:13;5.15;;;2.90;;
78985;SDS011;68384;55.750;48.746;2023-06-24T02:21:18;3.20;;;2.60;;
78985;SDS011;68384;55.750;48.746;2023-06-24T02:22:23;3.75;;;2.78;;
78985;SDS011;68384;55.750;48.746;2023-06-24T02:23:26;3.42;;;2.60;;
78985;SDS011;68384;55.750;48.746;2023-06-24T02:24:32;3.85;;;2.92;;
78985;SDS011;68384;55.750;48.746;2023-06-24T02:25:36;3.58;;;2.60;;
78985;SDS011;68384;55.750;48.746;2023-06-24T02:26:42;5.43;;;3.13;;
78985;SDS011;68384;55.750;48.746;2023-06-24T02:27:44;3.88;;;2.42;;
78985;SDS011;68384;55.750;48.746;2023-06-24T02:28:49;3.10;;;2.80;;
78985;SDS011;68384;55.750;48.746;2023-06-24T02:29:53;3.70;;;2.70;;
78985;SDS011;68384;55.750;48.746;2023-06-24T02:31:00;3.97;;;2.58;;
78985;SDS011;68384;55.750;48.746;2023-06-24T02:32:05;4.43;;;2.75;;
78985;SDS011;68384;55.750;48.746;2023-06-24T02:33:08;4.00;;;2.80;;
78985;SDS011;68384;55.750;48.746;2023-06-24T02:34:15;5.20;;;2.92;;
78985;SDS011;68384;55.750;48.746;2023-06-24T02:35:18;3.60;;;2.60;;
78985;SDS011;68384;55.750;48.746;2023-06-24T02:36:22;4.07;;;3.40;;
78985;SDS011;68384;55.750;48.746;2023-06-24T02:37:25;3.83;;;3.30;;
78985;SDS011;68384;55.750;48.746;2023-06-24T02:38:29;3.95;;;2.70;;
78985;SDS011;68384;55.750;48.746;2023-06-24T02:39:32;3.42;;;2.72;;
78985;SDS011;68384;55.750;48.746;2023-06-24T02:40:36;3.88;;;2.83;;
78985;SDS011;68384;55.750;48.746;2023-06-24T02:41:39;5.38;;;2.90;;
78985;SDS011;68384;55.750;48.746;2023-06-24T02:42:43;4.07;;;2.70;;
78985;SDS011;68384;55.750;48.746;2023-06-24T02:43:46;3.40;;;2.67;;
78985;SDS011;68384;55.750;48.746;2023-06-24T02:44:50;3.67;;;2.60;;
78985;SDS011;68384;55.750;48.746;2023-06-24T02:45:53;3.95;;;2.60;;
78985;SDS011;68384;55.750;48.746;2023-06-24T02:46:58;3.92;;;2.78;;
78985;SDS011;68384;55.750;48.746;2023-06-24T02:48:03;5.65;;;2.97;;
78985;SDS011;68384;55.750;48.746;2023-06-24T02:49:08;3.53;;;2.67;;
78985;SDS011;68384;55.750;48.746;2023-06-24T02:50:15;5.07;;;2.67;;
78985;SDS011;68384;55.750;48.746;2023-06-24T02:51:21;3.72;;;2.83;;
78985;SDS011;68384;55.750;48.746;2023-06-24T02:52:25;3.78;;;2.92;;
78985;SDS011;68384;55.750;48.746;2023-06-24T02:53:31;3.38;;;2.40;;
78985;SDS011;68384;55.750;48.746;2023-06-24T02:54:35;4.93;;;2.97;;
78985;SDS011;68384;55.750;48.746;2023-06-24T02:56:00;3.33;;;2.80;;
78985;SDS011;68384;55.750;48.746;2023-06-24T02:57:07;3.47;;;2.58;;
78985;SDS011;68384;55.750;48.746;2023-06-24T02:58:42;4.85;;;2.80;;
78985;SDS011;68384;55.750;48.746;2023-06-24T02:59:54;5.97;;;2.72;;
78985;SDS011;68384;55.750;48.746;2023-06-24T03:01:01;3.65;;;2.90;;
78985;SDS011;68384;55.750;48.746;2023-06-24T03:02:07;3.75;;;3.03;;
78985;SDS011;68384;55.750;48.746;2023-06-24T03:03:11;3.55;;;2.92;;
78985;SDS011;68384;55.750;48.746;2023-06-24T03:04:22;4.55;;;3.05;;
78985;SDS011;68384;55.750;48.746;2023-06-24T03:05:26;3.40;;;3.00;;
78985;SDS011;68384;55.750;48.746;2023-06-24T03:06:31;3.45;;;2.90;;
78985;SDS011;68384;55.750;48.746;2023-06-24T03:07:38;5.43;;;3.17;;
78985;SDS011;68384;55.750;48.746;2023-06-24T03:08:42;5.40;;;3.25;;
78985;SDS011;68384;55.750;48.746;2023-06-24T03:09:45;5.43;;;3.20;;
78985;SDS011;68384;55.750;48.746;2023-06-24T03:10:49;3.80;;;3.08;;
78985;SDS011;68384;55.750;48.746;2023-06-24T03:11:56;6.80;;;3.40;;
78985;SDS011;68384;55.750;48.746;2023-06-24T03:13:09;4.07;;;2.90;;
78985;SDS011;68384;55.750;48.746;2023-06-24T03:14:18;3.38;;;2.90;;
78985;SDS011;68384;55.750;48.746;2023-06-24T03:15:22;4.93;;;3.30;;
78985;SDS011;68384;55.750;48.746;2023-06-24T03:16:28;6.53;;;3.42;;
78985;SDS011;68384;55.750;48.746;2023-06-24T03:17:37;3.92;;;3.10;;
78985;SDS011;68384;55.750;48.746;2023-06-24T03:18:40;3.38;;;2.80;;
78985;SDS011;68384;55.750;48.746;2023-06-24T03:19:44;4.07;;;3.35;;
78985;SDS011;68384;55.750;48.746;2023-06-24T03:20:49;3.78;;;2.80;;
78985;SDS011;68384;55.750;48.746;2023-06-24T03:23:00;3.85;;;3.22;;
78985;SDS011;68384;55.750;48.746;2023-06-24T03:24:05;5.65;;;3.10;;
78985;SDS011;68384;55.750;48.746;2023-06-24T03:25:10;3.78;;;3.20;;
78985;SDS011;68384;55.750;48.746;2023-06-24T03:26:14;5.75;;;3.42;;
78985;SDS011;68384;55.750;48.746;2023-06-24T03:28:21;4.22;;;3.10;;
78985;SDS011;68384;55.750;48.746;2023-06-24T03:29:31;3.95;;;2.97;;
78985;SDS011;68384;55.750;48.746;2023-06-24T03:30:43;3.58;;;3.20;;
78985;SDS011;68384;55.750;48.746;2023-06-24T03:31:49;3.97;;;3.28;;
78985;SDS011;68384;55.750;48.746;2023-06-24T03:32:56;4.40;;;3.40;;
78985;SDS011;68384;55.750;48.746;2023-06-24T03:33:59;4.07;;;3.13;;
78985;SDS011;68384;55.750;48.746;2023-06-24T03:35:03;4.82;;;3.53;;
78985;SDS011;68384;55.750;48.746;2023-06-24T03:36:10;3.58;;;3.00;;
78985;SDS011;68384;55.750;48.746;2023-06-24T03:37:14;4.70;;;3.25;;
78985;SDS011;68384;55.750;48.746;2023-06-24T03:38:18;6.28;;;3.30;;
78985;SDS011;68384;55.750;48.746;2023-06-24T03:39:21;3.90;;;3.00;;
78985;SDS011;68384;55.750;48.746;2023-06-24T03:40:25;4.10;;;3.20;;
78985;SDS011;68384;55.750;48.746;2023-06-24T03:41:28;4.63;;;3.30;;
78985;SDS011;68384;55.750;48.746;2023-06-24T03:42:32;4.55;;;3.08;;
78985;SDS011;68384;55.750;48.746;2023-06-24T03:43:35;3.97;;;3.17;;
78985;SDS011;68384;55.750;48.746;2023-06-24T03:44:39;4.10;;;3.42;;
78985;SDS011;68384;55.750;48.746;2023-06-24T03:45:42;4.00;;;3.35;;
78985;SDS011;68384;55.750;48.746;2023-06-24T03:46:46;3.60;;;3.20;;
78985;SDS011;68384;55.750;48.746;2023-06-24T03:47:49;3.40;;;2.97;;
78985;SDS011;68384;55.750;48.746;2023-06-24T03:48:53;5.20;;;3.30;;
78985;SDS011;68384;55.750;48.746;2023-06-24T03:49:56;3.47;;;3.10;;
78985;SDS011;68384;55.750;48.746;2023-06-24T03:51:00;4.03;;;3.35;;
78985;SDS011;68384;55.750;48.746;2023-06-24T03:52:06;4.57;;;3.55;;
78985;SDS011;68384;55.750;48.746;2023-06-24T03:53:12;4.82;;;3.35;;
78985;SDS011;68384;55.750;48.746;2023-06-24T03:55:18;3.75;;;3.13;;
78985;SDS011;68384;55.750;48.746;2023-06-24T03:56:22;4.55;;;3.30;;
78985;SDS011;68384;55.750;48.746;2023-06-24T03:57:25;4.13;;;3.42;;
78985;SDS011;68384;55.750;48.746;2023-06-24T03:58:28;3.65;;;3.05;;
78985;SDS011;68384;55.750;48.746;2023-06-24T03:59:32;3.83;;;3.10;;
78985;SDS011;68384;55.750;48.746;2023-06-24T04:00:35;4.18;;;3.10;;
78985;SDS011;68384;55.750;48.746;2023-06-24T04:01:42;4.03;;;3.42;;
78985;SDS011;68384;55.750;48.746;2023-06-24T04:02:45;3.75;;;2.80;;
78985;SDS011;68384;55.750;48.746;2023-06-24T04:03:49;3.97;;;3.13;;
78985;SDS011;68384;55.750;48.746;2023-06-24T04:04:52;5.53;;;3.47;;
78985;SDS011;68384;55.750;48.746;2023-06-24T04:05:57;3.53;;;3.00;;
78985;SDS011;68384;55.750;48.746;2023-06-24T04:07:00;4.95;;;3.00;;
78985;SDS011;68384;55.750;48.746;2023-06-24T04:08:09;7.75;;;3.45;;
78985;SDS011;68384;55.750;48.746;2023-06-24T04:09:13;3.90;;;3.30;;
78985;SDS011;68384;55.750;48.746;2023-06-24T04:10:18;3.65;;;3.03;;
78985;SDS011;68384;55.750;48.746;2023-06-24T04:11:22;4.65;;;3.55;;
78985;SDS011;68384;55.750;48.746;2023-06-24T04:12:25;5.32;;;3.50;;
78985;SDS011;68384;55.750;48.746;2023-06-24T04:13:28;4.13;;;3.50;;
78985;SDS011;68384;55.750;48.746;2023-06-24T04:14:36;5.22;;;3.42;;
78985;SDS011;68384;55.750;48.746;2023-06-24T04:15:39;6.38;;;3.47;;
78985;SDS011;68384;55.750;48.746;2023-06-24T04:16:42;6.28;;;3.90;;
78985;SDS011;68384;55.750;48.746;2023-06-24T04:17:45;4.40;;;3.60;;
78985;SDS011;68384;55.750;48.746;2023-06-24T04:18:49;4.65;;;3.58;;
78985;SDS011;68384;55.750;48.746;2023-06-24T04:19:52;5.10;;;3.30;;
78985;SDS011;68384;55.750;48.746;2023-06-24T04:20:56;4.70;;;3.33;;
78985;SDS011;68384;55.750;48.746;2023-06-24T04:21:59;5.93;;;3.53;;
78985;SDS011;68384;55.750;48.746;2023-06-24T04:23:03;3.92;;;3.15;;
78985;SDS011;68384;55.750;48.746;2023-06-24T04:24:08;4.32;;;3.40;;
78985;SDS011;68384;55.750;48.746;2023-06-24T04:25:12;4.97;;;3.60;;
78985;SDS011;68384;55.750;48.746;2023-06-24T04:26:15;8.18;;;3.55;;
78985;SDS011;68384;55.750;48.746;2023-06-24T04:27:19;4.03;;;3.50;;
78985;SDS011;68384;55.750;48.746;2023-06-24T04:28:22;4.43;;;3.47;;
78985;SDS011;68384;55.750;48.746;2023-06-24T04:29:26;7.28;;;3.35;;
78985;SDS011;68384;55.750;48.746;2023-06-24T04:30:30;5.47;;;4.22;;
78985;SDS011;68384;55.750;48.746;2023-06-24T04:31:34;5.50;;;3.80;;
78985;SDS011;68384;55.750;48.746;2023-06-24T04:32:37;6.47;;;4.40;;
78985;SDS011;68384;55.750;48.746;2023-06-24T04:33:41;4.47;;;3.72;;
78985;SDS011;68384;55.750;48.746;2023-06-24T04:34:44;5.68;;;3.78;;
78985;SDS011;68384;55.750;48.746;2023-06-24T04:35:47;4.97;;;3.65;;
78985;SDS011;68384;55.750;48.746;2023-06-24T04:36:50;5.50;;;3.65;;
78985;SDS011;68384;55.750;48.746;2023-06-24T04:37:54;4.68;;;3.42;;
78985;SDS011;68384;55.750;48.746;2023-06-24T04:38:58;5.13;;;3.40;;
78985;SDS011;68384;55.750;48.746;2023-06-24T04:40:04;5.40;;;3.60;;
78985;SDS011;68384;55.750;48.746;2023-06-24T04:41:08;5.38;;;3.53;;
78985;SDS011;68384;55.750;48.746;2023-06-24T04:42:11;5.32;;;3.92;;
78985;SDS011;68384;55.750;48.746;2023-06-24T04:43:14;5.60;;;3.40;;
78985;SDS011;68384;55.750;48.746;2023-06-24T04:44:18;8.40;;;3.25;;
78985;SDS011;68384;55.750;48.746;2023-06-24T04:45:22;4.80;;;3.58;;
78985;SDS011;68384;55.750;48.746;2023-06-24T04:46:26;5.57;;;3.63;;
78985;SDS011;68384;55.750;48.746;2023-06-24T04:47:29;6.47;;;3.70;;
78985;SDS011;68384;55.750;48.746;2023-06-24T04:48:32;6.70;;;3.55;;
78985;SDS011;68384;55.750;48.746;2023-06-24T04:49:35;5.13;;;3.92;;
78985;SDS011;68384;55.750;48.746;2023-06-24T04:50:39;6.82;;;3.53;;
78985;SDS011;68384;55.750;48.746;2023-06-24T04:52:51;5.65;;;3.55;;
78985;SDS011;68384;55.750;48.746;2023-06-24T04:53:55;5.57;;;3.60;;
78985;SDS011;68384;55.750;48.746;2023-06-24T04:54:59;3.92;;;3.15;;
78985;SDS011;68384;55.750;48.746;2023-06-24T04:56:04;6.57;;;3.83;;
78985;SDS011;68384;55.750;48.746;2023-06-24T04:57:09;5.28;;;3.53;;
78985;SDS011;68384;55.750;48.746;2023-06-24T04:58:24;4.10;;;3.55;;
78985;SDS011;68384;55.750;48.746;2023-06-24T04:59:28;6.22;;;3.80;;
78985;SDS011;68384;55.750;48.746;2023-06-24T05:00:31;6.13;;;3.72;;
78985;SDS011;68384;55.750;48.746;2023-06-24T05:01:35;4.65;;;4.00;;
78985;SDS011;68384;55.750;48.746;2023-06-24T05:02:38;4.70;;;3.80;;
78985;SDS011;68384;55.750;48.746;2023-06-24T05:03:41;4.38;;;3.40;;
78985;SDS011;68384;55.750;48.746;2023-06-24T05:04:44;4.47;;;3.33;;
78985;SDS011;68384;55.750;48.746;2023-06-24T05:05:48;4.78;;;3.33;;
78985;SDS011;68384;55.750;48.746;2023-06-24T05:06:52;8.48;;;4.32;;
78985;SDS011;68384;55.750;48.746;2023-06-24T05:07:55;5.40;;;3.25;;
78985;SDS011;68384;55.750;48.746;2023-06-24T05:08:59;4.97;;;3.88;;
78985;SDS011;68384;55.750;48.746;2023-06-24T05:10:02;8.35;;;4.03;;
78985;SDS011;68384;55.750;48.746;2023-06-24T05:11:08;5.72;;;3.95;;
78985;SDS011;68384;55.750;48.746;2023-06-24T05:12:11;8.40;;;4.20;;
78985;SDS011;68384;55.750;48.746;2023-06-24T05:13:15;9.45;;;4.00;;
78985;SDS011;68384;55.750;48.746;2023-06-24T05:14:17;4.82;;;3.50;;
78985;SDS011;68384;55.750;48.746;2023-06-24T05:15:21;5.78;;;3.35;;
78985;SDS011;68384;55.750;48.746;2023-06-24T05:16:24;4.30;;;3.60;;
78985;SDS011;68384;55.750;48.746;2023-06-24T05:17:28;5.90;;;3.53;;
78985;SDS011;68384;55.750;48.746;2023-06-24T05:18:31;5.95;;;4.15;;
78985;SDS011;68384;55.750;48.746;2023-06-24T05:19:35;7.47;;;4.22;;
78985;SDS011;68384;55.750;48.746;2023-06-24T05:20:38;4.60;;;3.53;;
78985;SDS011;68384;55.750;48.746;2023-06-24T05:21:42;4.95;;;4.13;;
78985;SDS011;68384;55.750;48.746;2023-06-24T05:22:45;6.72;;;3.60;;
78985;SDS011;68384;55.750;48.746;2023-06-24T05:23:49;5.28;;;3.85;;
78985;SDS011;68384;55.750;48.746;2023-06-24T05:24:52;6.50;;;4.00;;
78985;SDS011;68384;55.750;48.746;2023-06-24T05:25:56;7.93;;;3.85;;
78985;SDS011;68384;55.750;48.746;2023-06-24T05:27:03;7.65;;;3.60;;
78985;SDS011;68384;55.750;48.746;2023-06-24T05:28:08;6.35;;;4.38;;
78985;SDS011;68384;55.750;48.746;2023-06-24T05:29:11;5.93;;;3.42;;
78985;SDS011;68384;55.750;48.746;2023-06-24T05:30:15;5.55;;;3.80;;
78985;SDS011;68384;55.750;48.746;2023-06-24T05:31:18;4.85;;;3.78;;
78985;SDS011;68384;55.750;48.746;2023-06-24T05:32:21;7.38;;;4.03;;
78985;SDS011;68384;55.750;48.746;2023-06-24T05:33:24;4.28;;;3.80;;
78985;SDS011;68384;55.750;48.746;2023-06-24T05:34:28;6.57;;;4.03;;
78985;SDS011;68384;55.750;48.746;2023-06-24T05:35:31;7.55;;;3.95;;
78985;SDS011;68384;55.750;48.746;2023-06-24T05:36:36;6.60;;;3.60;;
78985;SDS011;68384;55.750;48.746;2023-06-24T05:37:38;5.63;;;4.10;;
78985;SDS011;68384;55.750;48.746;2023-06-24T05:38:42;5.15;;;3.65;;
78985;SDS011;68384;55.750;48.746;2023-06-24T05:39:45;4.38;;;3.92;;
78985;SDS011;68384;55.750;48.746;2023-06-24T05:40:49;6.13;;;3.58;;
78985;SDS011;68384;55.750;48.746;2023-06-24T05:41:52;5.65;;;3.92;;
78985;SDS011;68384;55.750;48.746;2023-06-24T05:42:57;4.82;;;3.80;;
78985;SDS011;68384;55.750;48.746;2023-06-24T05:44:01;6.43;;;4.30;;
78985;SDS011;68384;55.750;48.746;2023-06-24T05:45:06;4.32;;;3.58;;
78985;SDS011;68384;55.750;48.746;2023-06-24T05:46:09;6.10;;;4.05;;
78985;SDS011;68384;55.750;48.746;2023-06-24T05:47:13;6.03;;;4.07;;
78985;SDS011;68384;55.750;48.746;2023-06-24T05:48:16;4.20;;;3.80;;
78985;SDS011;68384;55.750;48.746;2023-06-24T05:49:20;6.82;;;4.13;;
78985;SDS011;68384;55.750;48.746;2023-06-24T05:50:23;4.40;;;3.60;;
78985;SDS011;68384;55.750;48.746;2023-06-24T05:51:26;4.15;;;3.53;;
78985;SDS011;68384;55.750;48.746;2023-06-24T05:52:29;4.18;;;3.60;;
78985;SDS011;68384;55.750;48.746;2023-06-24T05:53:33;6.57;;;3.90;;
78985;SDS011;68384;55.750;48.746;2023-06-24T05:54:36;5.78;;;3.85;;
78985;SDS011;68384;55.750;48.746;2023-06-24T05:55:40;5.53;;;3.50;;
78985;SDS011;68384;55.750;48.746;2023-06-24T05:56:43;6.22;;;4.03;;
78985;SDS011;68384;55.750;48.746;2023-06-24T05:57:47;4.10;;;3.60;;
78985;SDS011;68384;55.750;48.746;2023-06-24T05:58:51;6.63;;;4.00;;
78985;SDS011;68384;55.750;48.746;2023-06-24T05:59:55;5.43;;;4.15;;
78985;SDS011;68384;55.750;48.746;2023-06-24T06:00:58;5.03;;;3.83;;
78985;SDS011;68384;55.750;48.746;2023-06-24T06:02:03;4.65;;;4.05;;
78985;SDS011;68384;55.750;48.746;2023-06-24T06:03:06;4.53;;;4.03;;
78985;SDS011;68384;55.750;48.746;2023-06-24T06:04:12;4.68;;;3.85;;
78985;SDS011;68384;55.750;48.746;2023-06-24T06:05:17;4.95;;;3.75;;
78985;SDS011;68384;55.750;48.746;2023-06-24T06:06:21;4.50;;;3.50;;
78985;SDS011;68384;55.750;48.746;2023-06-24T06:07:24;7.18;;;4.22;;
78985;SDS011;68384;55.750;48.746;2023-06-24T06:08:28;6.20;;;3.90;;
78985;SDS011;68384;55.750;48.746;2023-06-24T06:09:32;7.55;;;3.90;;
78985;SDS011;68384;55.750;48.746;2023-06-24T06:10:37;5.85;;;4.15;;
78985;SDS011;68384;55.750;48.746;2023-06-24T06:11:39;5.13;;;3.90;;
78985;SDS011;68384;55.750;48.746;2023-06-24T06:12:44;6.40;;;4.18;;
78985;SDS011;68384;55.750;48.746;2023-06-24T06:13:47;5.57;;;3.45;;
78985;SDS011;68384;55.750;48.746;2023-06-24T06:14:53;6.32;;;3.80;;
78985;SDS011;68384;55.750;48.746;2023-06-24T06:15:55;7.20;;;3.70;;
78985;SDS011;68384;55.750;48.746;2023-06-24T06:16:59;6.25;;;3.83;;
78985;SDS011;68384;55.750;48.746;2023-06-24T06:18:03;8.10;;;4.30;;
78985;SDS011;68384;55.750;48.746;2023-06-24T06:19:07;4.82;;;3.80;;
78985;SDS011;68384;55.750;48.746;2023-06-24T06:20:10;6.85;;;3.83;;
78985;SDS011;68384;55.750;48.746;2023-06-24T06:21:15;4.70;;;4.07;;
78985;SDS011;68384;55.750;48.746;2023-06-24T06:22:17;4.00;;;3.47;;
78985;SDS011;68384;55.750;48.746;2023-06-24T06:23:21;4.85;;;3.95;;
78985;SDS011;68384;55.750;48.746;2023-06-24T06:24:24;6.03;;;4.13;;
78985;SDS011;68384;55.750;48.746;2023-06-24T06:25:28;4.60;;;4.03;;
78985;SDS011;68384;55.750;48.746;2023-06-24T06:26:31;6.18;;;4.18;;
78985;SDS011;68384;55.750;48.746;2023-06-24T06:27:35;7.35;;;4.18;;
78985;SDS011;68384;55.750;48.746;2023-06-24T06:28:38;6.72;;;4.00;;
78985;SDS011;68384;55.750;48.746;2023-06-24T06:29:42;4.80;;;4.30;;
78985;SDS011;68384;55.750;48.746;2023-06-24T06:30:47;5.68;;;3.25;;
78985;SDS011;68384;55.750;48.746;2023-06-24T06:31:51;4.50;;;3.97;;
78985;SDS011;68384;55.750;48.746;2023-06-24T06:32:57;6.65;;;4.00;;
78985;SDS011;68384;55.750;48.746;2023-06-24T06:34:01;7.30;;;4.00;;
78985;SDS011;68384;55.750;48.746;2023-06-24T06:35:05;5.78;;;3.88;;
78985;SDS011;68384;55.750;48.746;2023-06-24T06:36:09;4.15;;;3.45;;
78985;SDS011;68384;55.750;48.746;2023-06-24T06:37:13;7.07;;;3.90;;
78985;SDS011;68384;55.750;48.746;2023-06-24T06:38:16;4.47;;;3.53;;